createdAt,value
2019-03-28T00:02:14.160Z,26.55
2019-03-28T00:04:42.648Z,23.18
2019-03-28T00:07:11.111Z,22.20
2019-03-28T00:09:39.529Z,21.25
2019-03-28T00:12:07.932Z,23.62
2019-03-28T00:14:36.358Z,19.57
2019-03-28T00:17:04.837Z,22.00
2019-03-28T00:19:33.248Z,23.83
2019-03-28T00:22:01.711Z,16.45
2019-03-28T00:24:31.754Z,23.05
2019-03-28T00:27:00.164Z,18.98
2019-03-28T00:29:28.725Z,19.07
2019-03-28T00:31:58.873Z,18.57
2019-03-28T00:34:27.202Z,22.00
2019-03-28T00:36:55.690Z,22.17
2019-03-28T00:39:24.157Z,23.77
2019-03-28T00:41:52.566Z,22.40
2019-03-28T00:44:21.135Z,24.27
2019-03-28T00:46:49.621Z,27.20
2019-03-28T00:49:18.160Z,26.15
2019-03-28T00:51:46.735Z,30.20
2019-03-28T00:54:15.138Z,24.30
2019-03-28T00:56:47.128Z,26.82
2019-03-28T00:59:13.742Z,35.78
2019-03-28T01:01:42.155Z,20.97
2019-03-28T01:04:10.674Z,26.30
2019-03-28T01:06:39.141Z,23.62
2019-03-28T01:09:09.391Z,24.12
2019-03-28T01:11:37.862Z,21.62
2019-03-28T01:14:06.274Z,20.32
2019-03-28T01:16:34.747Z,24.87
2019-03-28T01:19:03.281Z,28.00
2019-03-28T01:21:31.766Z,21.50
2019-03-28T01:24:00.238Z,25.55
2019-03-28T01:26:28.734Z,35.25
2019-03-28T01:28:57.213Z,28.10
2019-03-28T01:31:25.626Z,31.52
2019-03-28T01:33:54.097Z,28.40
2019-03-28T01:36:22.502Z,34.18
2019-03-28T01:38:50.910Z,28.02
2019-03-28T01:41:19.389Z,22.07
2019-03-28T01:43:47.814Z,27.85
2019-03-28T01:46:16.214Z,26.90
2019-03-28T01:48:44.617Z,26.93
2019-03-28T01:51:13.044Z,28.87
2019-03-28T01:53:41.511Z,28.80
2019-03-28T01:56:09.914Z,34.30
2019-03-28T01:58:38.321Z,31.42
2019-03-28T02:01:06.738Z,29.92
2019-03-28T02:03:35.210Z,30.55
2019-03-28T02:06:03.861Z,30.60
2019-03-28T02:08:32.266Z,30.32
2019-03-28T02:11:00.674Z,30.00
2019-03-28T02:13:29.151Z,27.60
2019-03-28T02:15:57.621Z,27.98
2019-03-28T02:18:26.040Z,28.57
2019-03-28T02:20:54.583Z,30.37
2019-03-28T02:23:23.070Z,27.58
2019-03-28T02:25:51.609Z,32.98
2019-03-28T02:28:20.006Z,28.47
2019-03-28T02:30:48.493Z,27.48
2019-03-28T02:33:16.901Z,28.87
2019-03-28T02:35:45.378Z,30.15
2019-03-28T02:38:13.861Z,32.35
2019-03-28T02:40:42.710Z,27.22
2019-03-28T02:43:11.352Z,24.27
2019-03-28T02:45:39.818Z,28.02
2019-03-28T02:48:08.216Z,24.43
2019-03-28T02:50:37.726Z,33.95
2019-03-28T02:53:06.414Z,29.10
2019-03-28T02:55:34.823Z,25.30
2019-03-28T02:58:03.302Z,23.35
2019-03-28T03:00:31.641Z,25.68
2019-03-28T03:03:00.037Z,29.32
2019-03-28T03:05:28.437Z,28.07
2019-03-28T03:07:56.852Z,29.35
2019-03-28T03:10:25.330Z,25.37
2019-03-28T03:12:54.040Z,28.77
2019-03-28T03:15:22.507Z,29.80
2019-03-28T03:17:53.037Z,30.27
2019-03-28T03:20:21.509Z,34.08
2019-03-28T03:22:49.928Z,37.55
2019-03-28T03:25:18.398Z,28.42
2019-03-28T03:27:57.828Z,32.13
2019-03-28T03:30:16.959Z,33.67
2019-03-28T03:32:45.343Z,32.70
2019-03-28T03:35:14.918Z,31.17
2019-03-28T03:37:43.415Z,38.33
2019-03-28T03:40:12.795Z,32.85
2019-03-28T03:42:41.199Z,38.75
2019-03-28T03:45:09.816Z,38.95
2019-03-28T03:47:38.283Z,39.03
2019-03-28T03:50:07.674Z,33.90
2019-03-28T03:52:36.030Z,35.33
2019-03-28T03:55:06.460Z,42.17
2019-03-28T03:57:34.870Z,43.58
2019-03-28T04:00:05.736Z,40.23
2019-03-28T04:02:34.187Z,34.08
2019-03-28T04:05:02.691Z,31.82
2019-03-28T04:07:31.171Z,37.88
2019-03-28T04:09:59.647Z,41.50
2019-03-28T04:12:28.333Z,48.78
2019-03-28T04:14:56.912Z,33.80
2019-03-28T04:17:25.403Z,35.38
2019-03-28T04:19:53.974Z,35.83
2019-03-28T04:22:22.456Z,32.83
2019-03-28T04:24:51.039Z,43.08
2019-03-28T04:27:19.524Z,42.48
2019-03-28T04:29:47.992Z,42.38
2019-03-28T04:32:16.471Z,64.30
2019-03-28T04:34:44.950Z,113.30
2019-03-28T04:37:13.429Z,223.03
2019-03-28T04:39:42.478Z,233.50
2019-03-28T04:42:11.205Z,61.85
2019-03-28T04:44:39.684Z,73.72
2019-03-28T04:47:08.164Z,86.42
2019-03-28T04:49:36.748Z,105.22
2019-03-28T04:52:05.326Z,45.17
2019-03-28T04:54:33.813Z,150.55
2019-03-28T04:57:02.284Z,83.07
2019-03-28T04:59:30.763Z,40.80
2019-03-28T05:02:03.234Z,55.17
2019-03-28T05:04:29.363Z,42.03
2019-03-28T05:06:57.821Z,56.40
2019-03-28T05:09:26.369Z,91.67
2019-03-28T05:11:54.904Z,53.02
2019-03-28T05:14:23.387Z,102.50
2019-03-28T05:16:51.857Z,97.00
2019-03-28T05:19:20.339Z,85.92
2019-03-28T05:21:48.818Z,55.92
2019-03-28T05:24:17.297Z,129.15
2019-03-28T05:26:45.773Z,129.27
2019-03-28T05:29:14.767Z,129.72
2019-03-28T05:31:43.224Z,108.22
2019-03-28T05:34:13.533Z,139.77
2019-03-28T05:36:42.147Z,124.97
2019-03-28T05:39:12.367Z,76.25
2019-03-28T05:41:40.847Z,98.78
2019-03-28T05:44:09.327Z,122.65
2019-03-28T05:46:38.361Z,130.37
2019-03-28T05:49:06.999Z,132.55
2019-03-28T05:51:35.479Z,75.50
2019-03-28T05:54:05.841Z,48.42
2019-03-28T05:56:33.970Z,36.42
2019-03-28T05:59:10.850Z,47.43
2019-03-28T06:01:32.595Z,48.60
2019-03-28T06:04:01.026Z,37.85
2019-03-28T06:06:29.430Z,38.25
2019-03-28T06:08:57.910Z,62.50
2019-03-28T06:11:26.426Z,59.05
2019-03-28T06:13:54.874Z,39.73
2019-03-28T06:16:23.365Z,51.53
2019-03-28T06:18:51.828Z,43.05
2019-03-28T06:21:20.242Z,24.40
2019-03-28T06:23:48.714Z,22.45
2019-03-28T06:26:17.133Z,27.15
2019-03-28T06:28:45.586Z,23.45
2019-03-28T06:31:15.728Z,25.30
2019-03-28T06:33:44.170Z,36.45
2019-03-28T06:36:12.570Z,32.33
2019-03-28T06:38:40.984Z,27.45
2019-03-28T06:41:09.382Z,28.52
2019-03-28T06:43:37.862Z,23.95
2019-03-28T06:46:06.273Z,20.35
2019-03-28T06:48:34.746Z,24.10
2019-03-28T06:51:03.219Z,18.73
2019-03-28T06:53:31.711Z,14.90
2019-03-28T06:56:00.123Z,26.55
2019-03-28T06:58:28.662Z,24.40
2019-03-28T07:00:57.142Z,68.80
2019-03-28T07:03:25.546Z,53.15
2019-03-28T07:05:53.962Z,63.65
2019-03-28T07:08:22.361Z,34.63
2019-03-28T07:10:50.775Z,159.95
2019-03-28T07:13:19.337Z,535.25
2019-03-28T07:15:47.744Z,198.55
2019-03-28T07:18:16.217Z,114.62
2019-03-28T07:20:44.698Z,61.35
2019-03-28T07:23:13.119Z,199.75
2019-03-28T07:25:41.519Z,82.82
2019-03-28T07:28:09.935Z,84.72
2019-03-28T07:30:40.226Z,151.30
2019-03-28T07:33:08.650Z,196.12
2019-03-28T07:35:37.118Z,78.10
2019-03-28T07:38:05.527Z,143.95
2019-03-28T07:40:34.072Z,127.67
2019-03-28T07:43:02.621Z,155.40
2019-03-28T07:45:34.185Z,61.02
2019-03-28T07:48:01.146Z,190.55
2019-03-28T07:50:29.627Z,141.62
2019-03-28T07:52:58.037Z,148.40
2019-03-28T07:55:26.543Z,148.47
2019-03-28T07:57:54.923Z,27.42
2019-03-28T08:00:23.402Z,15.80
2019-03-28T08:02:51.807Z,33.42
2019-03-28T08:05:20.221Z,49.45
2019-03-28T08:07:48.702Z,31.57
2019-03-28T08:10:17.111Z,21.27
2019-03-28T08:12:45.587Z,21.27
2019-03-28T08:15:14.122Z,18.98
2019-03-28T08:17:42.534Z,13.98
2019-03-28T08:20:11.478Z,24.10
2019-03-28T08:22:39.878Z,13.25
2019-03-28T08:25:11.651Z,18.32
2019-03-28T08:27:38.509Z,45.65
2019-03-28T08:30:18.160Z,17.92
2019-03-28T08:32:39.824Z,17.70
2019-03-28T08:35:07.998Z,16.73
2019-03-28T08:37:37.190Z,33.98
2019-03-28T08:40:08.822Z,12.18
2019-03-28T08:42:37.308Z,10.78
2019-03-28T08:45:07.184Z,13.85
2019-03-28T08:47:35.722Z,13.85
2019-03-28T08:50:06.165Z,28.25
2019-03-28T08:52:34.562Z,21.02
2019-03-28T08:55:03.438Z,10.18
2019-03-28T08:57:31.838Z,22.42
2019-03-28T09:00:00.443Z,19.40
2019-03-28T09:02:28.919Z,17.27
2019-03-28T09:04:57.566Z,11.75
2019-03-28T09:07:26.094Z,26.10
2019-03-28T09:09:54.546Z,11.35
2019-03-28T09:12:23.977Z,15.13
2019-03-28T09:14:52.419Z,15.83
2019-03-28T09:17:23.736Z,14.75
2019-03-28T09:19:50.946Z,22.07
2019-03-28T09:22:19.354Z,24.80
2019-03-28T09:24:47.831Z,15.08
2019-03-28T09:27:16.278Z,13.68
2019-03-28T09:29:44.651Z,10.35
2019-03-28T09:32:13.122Z,15.58
2019-03-28T09:34:41.525Z,14.10
2019-03-28T09:37:09.932Z,13.03
2019-03-28T09:39:38.436Z,14.65
2019-03-28T09:42:06.838Z,14.18
2019-03-28T09:44:35.345Z,17.55
2019-03-28T09:47:03.748Z,10.93
2019-03-28T09:49:32.157Z,10.68
2019-03-28T09:52:00.566Z,13.62
2019-03-28T09:54:29.030Z,14.00
2019-03-28T09:56:57.434Z,10.75
2019-03-28T09:59:25.830Z,24.25
2019-03-28T10:01:54.318Z,16.75
2019-03-28T10:04:22.717Z,25.48
2019-03-28T10:06:51.103Z,15.25
2019-03-28T10:09:19.586Z,29.52
2019-03-28T10:11:48.000Z,14.53
2019-03-28T10:14:16.401Z,15.68
2019-03-28T10:16:45.039Z,14.58
2019-03-28T10:19:13.521Z,18.70
2019-03-28T10:21:41.986Z,8.20
2019-03-28T10:24:10.948Z,10.70
2019-03-28T10:26:39.990Z,11.80
2019-03-28T10:29:08.395Z,9.50
2019-03-28T10:31:36.951Z,8.68
2019-03-28T10:34:05.428Z,8.40
2019-03-28T10:36:34.070Z,8.40
2019-03-28T10:39:02.714Z,6.40
2019-03-28T10:41:31.229Z,16.15
2019-03-28T10:43:59.621Z,7.78
2019-03-28T10:46:28.030Z,10.40
2019-03-28T10:48:56.559Z,9.20
2019-03-28T10:51:25.029Z,10.20
2019-03-28T10:53:53.455Z,8.10
2019-03-28T10:56:23.416Z,9.15
2019-03-28T10:58:51.970Z,12.20
2019-03-28T11:01:36.070Z,7.65
2019-03-28T11:03:50.486Z,5.75
2019-03-28T11:06:18.892Z,11.18
2019-03-28T11:08:47.362Z,10.35
2019-03-28T11:11:15.844Z,11.00
2019-03-28T11:13:44.246Z,10.05
2019-03-28T11:16:14.977Z,9.83
2019-03-28T11:18:42.766Z,8.50
2019-03-28T11:21:11.174Z,17.52
2019-03-28T11:23:39.650Z,9.93
2019-03-28T11:26:08.064Z,8.20
2019-03-28T11:28:36.570Z,12.35
2019-03-28T11:31:05.046Z,10.38
2019-03-28T11:33:33.522Z,11.75
2019-03-28T11:36:01.937Z,7.00
2019-03-28T11:38:30.338Z,7.15
2019-03-28T11:40:58.776Z,10.65
2019-03-28T11:43:27.318Z,6.28
2019-03-28T11:45:55.793Z,7.90
2019-03-28T11:48:24.446Z,11.00
2019-03-28T11:50:52.977Z,9.18
2019-03-28T11:53:21.444Z,5.58
2019-03-28T11:55:49.915Z,5.90
2019-03-28T11:58:18.386Z,4.12
2019-03-28T12:00:47.847Z,3.35
2019-03-28T12:03:16.292Z,2.42
2019-03-28T12:05:44.667Z,12.68
2019-03-28T12:08:13.130Z,2.85
2019-03-28T12:10:41.691Z,2.77
2019-03-28T12:13:10.175Z,17.17
2019-03-28T12:15:38.575Z,4.50
2019-03-28T12:18:07.047Z,3.90
2019-03-28T12:20:35.453Z,2.83
2019-03-28T12:23:03.999Z,8.05
2019-03-28T12:25:32.430Z,3.42
2019-03-28T12:28:00.840Z,6.28
2019-03-28T12:30:29.322Z,4.42
2019-03-28T12:32:57.803Z,3.40
2019-03-28T12:35:26.213Z,3.00
2019-03-28T12:37:54.604Z,5.33
2019-03-28T12:40:23.023Z,5.55
2019-03-28T12:42:51.498Z,5.45
2019-03-28T12:45:19.910Z,5.50
2019-03-28T12:47:48.303Z,5.37
2019-03-28T12:50:16.780Z,5.72
2019-03-28T12:52:45.235Z,7.22
2019-03-28T12:55:13.646Z,6.20
2019-03-28T12:57:42.132Z,2.92
2019-03-28T13:00:11.570Z,6.30
2019-03-28T13:02:40.058Z,4.70
2019-03-28T13:05:08.802Z,14.23
2019-03-28T13:07:37.220Z,4.50
2019-03-28T13:10:10.543Z,8.88
2019-03-28T13:12:39.078Z,3.75
2019-03-28T13:15:07.562Z,5.40
2019-03-28T13:17:35.964Z,3.17
2019-03-28T13:20:07.015Z,2.60
2019-03-28T13:22:35.485Z,5.42
2019-03-28T13:25:05.936Z,6.12
2019-03-28T13:27:34.853Z,12.13
2019-03-28T13:30:05.289Z,4.22
2019-03-28T13:32:41.588Z,8.90
2019-03-28T13:35:06.312Z,4.12
2019-03-28T13:37:34.729Z,2.43
2019-03-28T13:40:04.693Z,3.55
2019-03-28T13:42:33.106Z,6.33
2019-03-28T13:45:01.522Z,5.35
2019-03-28T13:47:30.001Z,3.00
2019-03-28T13:49:58.412Z,5.75
2019-03-28T13:52:26.896Z,3.75
2019-03-28T13:54:55.375Z,4.47
2019-03-28T13:57:25.167Z,2.10
2019-03-28T13:59:53.660Z,4.87
2019-03-28T14:02:22.147Z,3.80
2019-03-28T14:04:50.565Z,6.72
2019-03-28T14:07:19.000Z,7.12
2019-03-28T14:09:47.468Z,11.18
2019-03-28T14:12:15.952Z,7.97
2019-03-28T14:14:44.372Z,6.25
2019-03-28T14:17:12.785Z,6.60
2019-03-28T14:19:41.277Z,11.95
2019-03-28T14:22:09.758Z,9.55
2019-03-28T14:24:38.177Z,4.67
2019-03-28T14:27:06.669Z,3.72
2019-03-28T14:29:35.173Z,4.78
2019-03-28T14:32:03.671Z,3.12
2019-03-28T14:34:32.172Z,2.83
2019-03-28T14:37:00.592Z,6.25
2019-03-28T14:39:29.084Z,8.68
2019-03-28T14:41:57.583Z,7.42
2019-03-28T14:44:26.077Z,3.90
2019-03-28T14:46:54.493Z,4.80
2019-03-28T14:49:22.954Z,4.10
2019-03-28T14:51:51.504Z,6.30
2019-03-28T14:54:19.913Z,4.53
2019-03-28T14:56:48.325Z,8.63
2019-03-28T14:59:16.743Z,8.23
2019-03-28T15:01:45.324Z,6.20
2019-03-28T15:04:13.887Z,5.50
2019-03-28T15:06:42.297Z,8.38
2019-03-28T15:09:10.804Z,5.10
2019-03-28T15:11:39.300Z,19.62
2019-03-28T15:14:07.791Z,27.50
2019-03-28T15:16:37.471Z,5.97
2019-03-28T15:19:06.388Z,4.85
2019-03-28T15:21:34.871Z,5.97
2019-03-28T15:24:03.281Z,6.53
2019-03-28T15:26:31.866Z,6.12
2019-03-28T15:29:00.335Z,4.42
2019-03-28T15:31:28.909Z,4.92
2019-03-28T15:33:57.461Z,7.22
2019-03-28T15:36:25.986Z,5.53
2019-03-28T15:38:55.321Z,6.05
2019-03-28T15:41:23.812Z,10.18
2019-03-28T15:43:52.231Z,7.45
2019-03-28T15:46:20.667Z,26.17
2019-03-28T15:48:49.248Z,32.30
2019-03-28T15:51:17.664Z,14.45
2019-03-28T15:53:46.217Z,11.83
2019-03-28T15:56:14.700Z,10.13
2019-03-28T15:58:43.116Z,12.75
2019-03-28T16:01:11.744Z,5.92
2019-03-28T16:03:52.347Z,18.98
2019-03-28T16:06:12.301Z,16.62
2019-03-28T16:08:40.728Z,7.28
2019-03-28T16:11:09.154Z,14.35
2019-03-28T16:13:37.799Z,17.40
2019-03-28T16:16:06.449Z,57.03
2019-03-28T16:18:34.860Z,10.43
2019-03-28T16:21:03.272Z,13.62
2019-03-28T16:23:31.688Z,4.35
2019-03-28T16:26:00.175Z,14.33
2019-03-28T16:28:28.678Z,111.83
2019-03-28T16:30:57.106Z,19.10
2019-03-28T16:33:25.592Z,18.75
2019-03-28T16:35:54.003Z,8.93
2019-03-28T16:38:22.422Z,13.83
2019-03-28T16:40:50.824Z,14.43
2019-03-28T16:43:19.322Z,13.18
2019-03-28T16:45:47.792Z,13.62
2019-03-28T16:48:16.328Z,29.55
2019-03-28T16:50:44.815Z,22.35
2019-03-28T16:53:13.226Z,31.97
2019-03-28T16:55:41.631Z,23.73
2019-03-28T16:58:10.119Z,15.25
2019-03-28T17:00:38.614Z,19.92
2019-03-28T17:03:07.702Z,21.80
2019-03-28T17:05:36.413Z,43.55
2019-03-28T17:08:04.899Z,41.18
2019-03-28T17:10:41.657Z,43.10
2019-03-28T17:13:10.072Z,35.00
2019-03-28T17:15:38.572Z,53.63
2019-03-28T17:18:07.055Z,28.55
2019-03-28T17:20:35.547Z,66.07
2019-03-28T17:23:03.952Z,44.73
2019-03-28T17:25:32.372Z,10.72
2019-03-28T17:28:00.832Z,30.68
2019-03-28T17:30:29.269Z,25.00
2019-03-28T17:32:57.692Z,51.55
2019-03-28T17:35:26.181Z,30.40
2019-03-28T17:37:54.676Z,19.65
2019-03-28T17:40:23.274Z,29.87
2019-03-28T17:42:51.806Z,19.23
2019-03-28T17:45:20.285Z,43.17
2019-03-28T17:47:48.704Z,34.60
2019-03-28T17:50:17.620Z,83.37
2019-03-28T17:52:46.374Z,26.23
2019-03-28T17:55:19.500Z,30.95
2019-03-28T18:00:14.225Z,53.98
2019-03-28T18:02:42.815Z,55.20
2019-03-28T18:05:15.267Z,39.98
2019-03-28T18:07:41.617Z,62.10
2019-03-28T18:10:09.994Z,27.07
2019-03-28T18:12:39.628Z,56.33
2019-03-28T18:15:08.193Z,44.27
2019-03-28T18:17:36.600Z,45.12
2019-03-28T18:20:08.008Z,40.78
2019-03-28T18:22:36.582Z,29.02
2019-03-28T18:25:08.138Z,32.88
2019-03-28T18:27:36.584Z,39.18
2019-03-28T18:30:06.648Z,33.20
2019-03-28T18:32:35.137Z,80.77
2019-03-28T18:35:07.699Z,96.10
2019-03-28T18:37:35.785Z,34.30
2019-03-28T18:40:06.140Z,82.62
2019-03-28T18:42:34.627Z,68.22
2019-03-28T18:45:03.720Z,71.10
2019-03-28T18:47:32.201Z,59.00
2019-03-28T18:50:03.441Z,8.70
2019-03-28T18:52:30.788Z,39.30
2019-03-28T18:54:59.212Z,38.48
2019-03-28T18:57:27.696Z,30.85
2019-03-28T18:59:56.122Z,35.50
2019-03-28T19:02:24.613Z,15.95
2019-03-28T19:04:53.004Z,37.13
2019-03-28T19:07:21.458Z,32.93
2019-03-28T19:09:49.884Z,39.08
2019-03-28T19:12:18.300Z,14.58
2019-03-28T19:14:46.717Z,13.75
2019-03-28T19:17:15.219Z,24.12
2019-03-28T19:19:43.810Z,15.60
2019-03-28T19:22:12.407Z,10.05
2019-03-28T19:24:40.821Z,20.10
2019-03-28T19:27:09.240Z,31.95
2019-03-28T19:29:37.724Z,16.87
2019-03-28T19:32:06.137Z,21.73
2019-03-28T19:34:34.628Z,21.62
2019-03-28T19:37:03.105Z,20.05
2019-03-28T19:39:32.960Z,17.15
2019-03-28T19:42:04.294Z,17.05
2019-03-28T19:44:31.513Z,18.25
2019-03-28T19:47:00.001Z,23.70
2019-03-28T19:49:28.544Z,20.48
2019-03-28T19:51:56.984Z,18.98
2019-03-28T19:54:25.368Z,12.53
2019-03-28T19:56:57.169Z,13.03
2019-03-28T19:59:23.989Z,9.48
2019-03-28T20:01:52.536Z,21.55
2019-03-28T20:04:20.966Z,12.20
2019-03-28T20:06:50.218Z,7.60
2019-03-28T20:09:18.761Z,12.25
2019-03-28T20:11:47.237Z,5.95
2019-03-28T20:14:15.869Z,5.25
2019-03-28T20:16:44.465Z,6.97
2019-03-28T20:19:12.961Z,5.90
2019-03-28T20:21:41.361Z,6.05
2019-03-28T20:24:09.767Z,6.12
2019-03-28T20:26:38.212Z,14.45
2019-03-28T20:29:06.726Z,17.48
2019-03-28T20:31:35.110Z,18.75
2019-03-28T20:34:03.813Z,11.70
2019-03-28T20:36:38.495Z,12.28
2019-03-28T20:39:04.323Z,8.38
2019-03-28T20:41:32.513Z,6.85
2019-03-28T20:44:01.048Z,6.15
2019-03-28T20:46:29.546Z,6.92
2019-03-28T20:48:58.008Z,5.12
2019-03-28T20:51:26.630Z,8.00
2019-03-28T20:53:55.400Z,5.97
2019-03-28T20:56:23.879Z,7.17
2019-03-28T20:58:52.280Z,6.15
2019-03-28T21:01:20.764Z,4.55
2019-03-28T21:03:49.769Z,7.45
2019-03-28T21:06:19.573Z,5.95
2019-03-28T21:08:48.165Z,6.47
2019-03-28T21:11:16.712Z,4.22
2019-03-28T21:13:45.165Z,4.85
2019-03-28T21:16:13.664Z,5.50
2019-03-28T21:18:42.144Z,6.83
2019-03-28T21:21:10.624Z,6.45
2019-03-28T21:23:39.076Z,6.55
2019-03-28T21:26:07.480Z,6.22
2019-03-28T21:28:46.401Z,7.22
2019-03-28T21:31:06.022Z,7.17
2019-03-28T21:33:34.503Z,6.25
2019-03-28T21:36:02.980Z,7.70
2019-03-28T21:38:31.469Z,5.47
2019-03-28T21:40:59.956Z,6.55
2019-03-28T21:43:28.433Z,7.97
2019-03-28T21:45:56.839Z,8.85
2019-03-28T21:48:25.295Z,7.55
2019-03-28T21:50:53.863Z,5.85
2019-03-28T21:53:22.453Z,7.65
2019-03-28T21:55:55.557Z,5.03
2019-03-28T21:58:20.992Z,6.67
2019-03-28T22:00:49.476Z,7.12
2019-03-28T22:03:17.896Z,6.60
2019-03-28T22:05:46.377Z,6.80
2019-03-28T22:08:14.773Z,6.50
2019-03-28T22:10:43.478Z,8.08
2019-03-28T22:13:12.432Z,10.05
2019-03-28T22:15:41.009Z,6.22
2019-03-28T22:18:09.448Z,11.97
2019-03-28T22:20:38.092Z,12.03
2019-03-28T22:23:06.501Z,6.40
2019-03-28T22:25:34.896Z,10.05
2019-03-28T22:28:03.299Z,6.55
2019-03-28T22:30:31.714Z,8.50
2019-03-28T22:33:00.120Z,7.42
2019-03-28T22:35:28.601Z,7.35
2019-03-28T22:37:57.025Z,11.65
2019-03-28T22:40:25.495Z,6.60
2019-03-28T22:42:53.915Z,6.53
2019-03-28T22:45:22.393Z,6.87
2019-03-28T22:47:50.876Z,7.85
2019-03-28T22:50:19.301Z,5.05
2019-03-28T22:52:49.649Z,4.78
2019-03-28T22:55:18.012Z,8.40
2019-03-28T22:57:46.482Z,9.53
2019-03-28T23:00:14.961Z,6.62
2019-03-28T23:02:43.436Z,5.15
2019-03-28T23:05:11.929Z,4.62
2019-03-28T23:07:42.467Z,5.37
2019-03-28T23:10:11.567Z,4.37
2019-03-28T23:12:40.044Z,7.42
2019-03-28T23:15:08.884Z,4.50
2019-03-28T23:17:55.660Z,8.90
2019-03-28T23:20:24.157Z,5.60
2019-03-28T23:22:52.550Z,4.50
2019-03-28T23:25:21.370Z,5.97
2019-03-28T23:27:49.767Z,5.33
2019-03-28T23:30:18.166Z,5.37
2019-03-28T23:32:46.739Z,5.55
2019-03-28T23:35:17.378Z,5.08
2019-03-28T23:37:45.793Z,4.25
2019-03-28T23:40:14.322Z,6.67
2019-03-28T23:42:43.862Z,4.33
2019-03-28T23:45:12.745Z,5.28
2019-03-28T23:47:41.926Z,5.50
2019-03-28T23:50:10.317Z,5.00
2019-03-28T23:52:38.720Z,4.75
2019-03-28T23:55:07.785Z,4.10
2019-03-28T23:57:36.188Z,4.75
